sensor_id;sensor_type;location;lat;lon;timestamp;temperature;humidity
3816;DHT22;1923;48.154;11.536;2022-07-26T00:01:16;20.20;99.90
3816;DHT22;1923;48.154;11.536;2022-07-26T00:03:47;20.40;99.90
3816;DHT22;1923;48.154;11.536;2022-07-26T00:06:15;20.40;99.90
3816;DHT22;1923;48.154;11.536;2022-07-26T00:08:45;20.40;99.90
3816;DHT22;1923;48.154;11.536;2022-07-26T00:11:13;20.30;99.90
3816;DHT22;1923;48.154;11.536;2022-07-26T00:13:41;20.20;99.90
3816;DHT22;1923;48.154;11.536;2022-07-26T00:16:09;20.40;99.90
3816;DHT22;1923;48.154;11.536;2022-07-26T00:18:38;20.40;99.90
3816;DHT22;1923;48.154;11.536;2022-07-26T00:21:07;20.30;99.90
3816;DHT22;1923;48.154;11.536;2022-07-26T00:23:37;20.30;99.90
3816;DHT22;1923;48.154;11.536;2022-07-26T00:26:05;20.40;99.90
3816;DHT22;1923;48.154;11.536;2022-07-26T00:28:34;20.40;99.90
3816;DHT22;1923;48.154;11.536;2022-07-26T00:31:02;20.40;99.90
3816;DHT22;1923;48.154;11.536;2022-07-26T00:33:31;20.60;99.90
3816;DHT22;1923;48.154;11.536;2022-07-26T00:35:59;20.50;99.90
3816;DHT22;1923;48.154;11.536;2022-07-26T00:38:28;20.60;99.90
3816;DHT22;1923;48.154;11.536;2022-07-26T00:40:57;20.60;99.90
3816;DHT22;1923;48.154;11.536;2022-07-26T00:43:25;20.50;99.90
3816;DHT22;1923;48.154;11.536;2022-07-26T00:45:53;20.60;99.90
3816;DHT22;1923;48.154;11.536;2022-07-26T00:48:21;20.60;99.90
3816;DHT22;1923;48.154;11.536;2022-07-26T00:50:52;20.70;99.90
3816;DHT22;1923;48.154;11.536;2022-07-26T00:53:21;20.60;99.90
3816;DHT22;1923;48.154;11.536;2022-07-26T00:55:51;20.80;99.90
3816;DHT22;1923;48.154;11.536;2022-07-26T00:58:19;20.70;99.90
3816;DHT22;1923;48.154;11.536;2022-07-26T01:00:48;20.60;99.90
3816;DHT22;1923;48.154;11.536;2022-07-26T01:03:16;20.70;99.90
3816;DHT22;1923;48.154;11.536;2022-07-26T01:05:45;20.70;99.90
3816;DHT22;1923;48.154;11.536;2022-07-26T01:08:13;20.70;99.90
3816;DHT22;1923;48.154;11.536;2022-07-26T01:10:42;20.70;99.90
3816;DHT22;1923;48.154;11.536;2022-07-26T01:13:11;20.70;99.90
3816;DHT22;1923;48.154;11.536;2022-07-26T01:15:41;20.80;99.90
3816;DHT22;1923;48.154;11.536;2022-07-26T01:18:09;20.80;99.90
3816;DHT22;1923;48.154;11.536;2022-07-26T01:20:38;20.80;99.90
3816;DHT22;1923;48.154;11.536;2022-07-26T01:23:08;20.80;99.90
3816;DHT22;1923;48.154;11.536;2022-07-26T01:25:38;20.80;99.90
3816;DHT22;1923;48.154;11.536;2022-07-26T01:28:13;20.80;99.90
3816;DHT22;1923;48.154;11.536;2022-07-26T01:30:46;20.80;99.90
3816;DHT22;1923;48.154;11.536;2022-07-26T01:33:15;20.80;99.90
3816;DHT22;1923;48.154;11.536;2022-07-26T01:35:43;20.80;99.90
3816;DHT22;1923;48.154;11.536;2022-07-26T01:38:12;20.80;99.90
3816;DHT22;1923;48.154;11.536;2022-07-26T01:40:40;20.80;99.90
3816;DHT22;1923;48.154;11.536;2022-07-26T01:43:08;20.80;99.90
3816;DHT22;1923;48.154;11.536;2022-07-26T01:45:36;20.80;99.90
3816;DHT22;1923;48.154;11.536;2022-07-26T01:48:05;20.90;99.90
3816;DHT22;1923;48.154;11.536;2022-07-26T01:50:34;20.80;99.90
3816;DHT22;1923;48.154;11.536;2022-07-26T01:53:02;20.80;99.90
3816;DHT22;1923;48.154;11.536;2022-07-26T01:55:33;20.80;99.90
3816;DHT22;1923;48.154;11.536;2022-07-26T01:58:02;20.80;99.90
3816;DHT22;1923;48.154;11.536;2022-07-26T02:00:31;20.80;99.90
3816;DHT22;1923;48.154;11.536;2022-07-26T02:03:00;20.80;99.90
3816;DHT22;1923;48.154;11.536;2022-07-26T02:05:28;20.90;99.90
3816;DHT22;1923;48.154;11.536;2022-07-26T02:07:56;20.90;99.90
3816;DHT22;1923;48.154;11.536;2022-07-26T02:10:25;20.80;99.90
3816;DHT22;1923;48.154;11.536;2022-07-26T02:13:15;20.90;99.90
3816;DHT22;1923;48.154;11.536;2022-07-26T02:15:43;20.80;99.90
3816;DHT22;1923;48.154;11.536;2022-07-26T02:18:12;20.80;99.90
3816;DHT22;1923;48.154;11.536;2022-07-26T02:20:40;20.80;99.90
3816;DHT22;1923;48.154;11.536;2022-07-26T02:23:08;20.80;99.90
3816;DHT22;1923;48.154;11.536;2022-07-26T02:25:36;20.80;99.90
3816;DHT22;1923;48.154;11.536;2022-07-26T02:28:04;20.90;99.90
3816;DHT22;1923;48.154;11.536;2022-07-26T02:30:34;20.90;99.90
3816;DHT22;1923;48.154;11.536;2022-07-26T02:33:02;21.00;99.90
3816;DHT22;1923;48.154;11.536;2022-07-26T02:35:30;21.00;99.90
3816;DHT22;1923;48.154;11.536;2022-07-26T02:38:00;21.00;99.90
3816;DHT22;1923;48.154;11.536;2022-07-26T02:40:29;21.00;99.90
3816;DHT22;1923;48.154;11.536;2022-07-26T02:42:57;21.10;99.90
3816;DHT22;1923;48.154;11.536;2022-07-26T02:45:25;21.10;99.90
3816;DHT22;1923;48.154;11.536;2022-07-26T02:47:55;21.10;99.90
3816;DHT22;1923;48.154;11.536;2022-07-26T02:50:25;21.20;99.90
3816;DHT22;1923;48.154;11.536;2022-07-26T02:52:54;21.10;99.90
3816;DHT22;1923;48.154;11.536;2022-07-26T02:55:24;21.10;99.90
3816;DHT22;1923;48.154;11.536;2022-07-26T02:57:53;21.10;99.90
3816;DHT22;1923;48.154;11.536;2022-07-26T03:00:23;21.10;99.90
3816;DHT22;1923;48.154;11.536;2022-07-26T03:02:52;21.20;99.90
3816;DHT22;1923;48.154;11.536;2022-07-26T03:05:21;21.20;99.90
3816;DHT22;1923;48.154;11.536;2022-07-26T03:07:51;21.10;99.90
3816;DHT22;1923;48.154;11.536;2022-07-26T03:10:19;21.20;99.90
3816;DHT22;1923;48.154;11.536;2022-07-26T03:12:47;21.20;99.90
3816;DHT22;1923;48.154;11.536;2022-07-26T03:15:16;21.30;99.90
3816;DHT22;1923;48.154;11.536;2022-07-26T03:17:44;21.30;99.90
3816;DHT22;1923;48.154;11.536;2022-07-26T03:20:12;21.20;99.90
3816;DHT22;1923;48.154;11.536;2022-07-26T03:22:42;21.10;99.90
3816;DHT22;1923;48.154;11.536;2022-07-26T03:25:10;21.20;99.90
3816;DHT22;1923;48.154;11.536;2022-07-26T03:27:38;21.30;99.90
3816;DHT22;1923;48.154;11.536;2022-07-26T03:30:07;21.30;99.90
3816;DHT22;1923;48.154;11.536;2022-07-26T03:32:35;21.30;99.90
3816;DHT22;1923;48.154;11.536;2022-07-26T03:35:04;21.20;99.90
3816;DHT22;1923;48.154;11.536;2022-07-26T03:37:33;21.30;99.90
3816;DHT22;1923;48.154;11.536;2022-07-26T03:40:14;21.30;99.90
3816;DHT22;1923;48.154;11.536;2022-07-26T03:42:42;21.30;99.90
3816;DHT22;1923;48.154;11.536;2022-07-26T03:45:11;21.30;99.90
3816;DHT22;1923;48.154;11.536;2022-07-26T03:47:40;21.20;99.90
3816;DHT22;1923;48.154;11.536;2022-07-26T03:50:09;21.20;99.90
3816;DHT22;1923;48.154;11.536;2022-07-26T03:52:39;21.20;99.90
3816;DHT22;1923;48.154;11.536;2022-07-26T03:55:08;21.20;99.90
3816;DHT22;1923;48.154;11.536;2022-07-26T03:57:55;21.20;99.90
3816;DHT22;1923;48.154;11.536;2022-07-26T04:00:23;21.20;99.90
3816;DHT22;1923;48.154;11.536;2022-07-26T04:02:51;21.30;99.90
3816;DHT22;1923;48.154;11.536;2022-07-26T04:05:19;21.20;99.90
3816;DHT22;1923;48.154;11.536;2022-07-26T04:07:51;21.20;99.90
3816;DHT22;1923;48.154;11.536;2022-07-26T04:10:26;21.20;99.90
3816;DHT22;1923;48.154;11.536;2022-07-26T04:12:55;21.20;99.90
3816;DHT22;1923;48.154;11.536;2022-07-26T04:15:23;21.20;99.90
3816;DHT22;1923;48.154;11.536;2022-07-26T04:17:51;21.20;99.90
3816;DHT22;1923;48.154;11.536;2022-07-26T04:20:19;21.30;99.90
3816;DHT22;1923;48.154;11.536;2022-07-26T04:22:47;21.30;99.90
3816;DHT22;1923;48.154;11.536;2022-07-26T04:25:15;21.30;99.90
3816;DHT22;1923;48.154;11.536;2022-07-26T04:27:44;21.30;99.90
3816;DHT22;1923;48.154;11.536;2022-07-26T04:30:14;21.30;99.90
3816;DHT22;1923;48.154;11.536;2022-07-26T04:32:42;21.30;99.90
3816;DHT22;1923;48.154;11.536;2022-07-26T04:35:13;21.20;99.90
3816;DHT22;1923;48.154;11.536;2022-07-26T04:37:41;21.30;99.90
3816;DHT22;1923;48.154;11.536;2022-07-26T04:40:11;21.20;99.90
3816;DHT22;1923;48.154;11.536;2022-07-26T04:42:39;21.30;99.90
3816;DHT22;1923;48.154;11.536;2022-07-26T04:45:08;21.30;99.90
3816;DHT22;1923;48.154;11.536;2022-07-26T04:47:41;21.30;99.90
3816;DHT22;1923;48.154;11.536;2022-07-26T04:50:10;21.30;99.90
3816;DHT22;1923;48.154;11.536;2022-07-26T04:52:39;21.30;99.90
3816;DHT22;1923;48.154;11.536;2022-07-26T04:55:08;21.40;99.90
3816;DHT22;1923;48.154;11.536;2022-07-26T04:57:36;21.40;99.90
3816;DHT22;1923;48.154;11.536;2022-07-26T05:00:09;21.40;99.90
3816;DHT22;1923;48.154;11.536;2022-07-26T05:02:55;21.40;99.90
3816;DHT22;1923;48.154;11.536;2022-07-26T05:05:25;21.40;99.90
3816;DHT22;1923;48.154;11.536;2022-07-26T05:07:56;21.40;99.90
3816;DHT22;1923;48.154;11.536;2022-07-26T05:10:28;21.40;99.90
3816;DHT22;1923;48.154;11.536;2022-07-26T05:12:56;21.50;99.90
3816;DHT22;1923;48.154;11.536;2022-07-26T05:15:24;21.50;99.90
3816;DHT22;1923;48.154;11.536;2022-07-26T05:18:04;21.50;99.90
3816;DHT22;1923;48.154;11.536;2022-07-26T05:20:34;21.50;99.90
3816;DHT22;1923;48.154;11.536;2022-07-26T05:23:02;21.40;99.90
3816;DHT22;1923;48.154;11.536;2022-07-26T05:25:31;21.50;99.90
3816;DHT22;1923;48.154;11.536;2022-07-26T05:27:59;21.50;99.90
3816;DHT22;1923;48.154;11.536;2022-07-26T05:30:27;21.40;99.90
3816;DHT22;1923;48.154;11.536;2022-07-26T05:32:55;21.50;99.90
3816;DHT22;1923;48.154;11.536;2022-07-26T05:35:25;21.40;99.90
3816;DHT22;1923;48.154;11.536;2022-07-26T05:37:53;21.40;99.90
3816;DHT22;1923;48.154;11.536;2022-07-26T05:40:22;21.40;99.90
3816;DHT22;1923;48.154;11.536;2022-07-26T05:42:50;21.40;99.90
3816;DHT22;1923;48.154;11.536;2022-07-26T05:45:18;21.30;99.90
3816;DHT22;1923;48.154;11.536;2022-07-26T05:47:48;21.30;99.90
3816;DHT22;1923;48.154;11.536;2022-07-26T05:50:17;21.30;99.90
3816;DHT22;1923;48.154;11.536;2022-07-26T05:52:47;21.40;99.90
3816;DHT22;1923;48.154;11.536;2022-07-26T05:55:15;21.40;99.90
3816;DHT22;1923;48.154;11.536;2022-07-26T05:57:43;21.30;99.90
3816;DHT22;1923;48.154;11.536;2022-07-26T06:00:16;21.20;99.90
3816;DHT22;1923;48.154;11.536;2022-07-26T06:02:44;21.20;99.90
3816;DHT22;1923;48.154;11.536;2022-07-26T06:05:12;21.20;99.90
3816;DHT22;1923;48.154;11.536;2022-07-26T06:07:41;21.10;99.90
3816;DHT22;1923;48.154;11.536;2022-07-26T06:10:11;21.10;99.90
3816;DHT22;1923;48.154;11.536;2022-07-26T06:12:39;21.10;99.90
3816;DHT22;1923;48.154;11.536;2022-07-26T06:15:07;21.20;99.90
3816;DHT22;1923;48.154;11.536;2022-07-26T06:17:41;21.20;99.90
3816;DHT22;1923;48.154;11.536;2022-07-26T06:20:10;21.20;99.90
3816;DHT22;1923;48.154;11.536;2022-07-26T06:22:38;21.30;99.90
3816;DHT22;1923;48.154;11.536;2022-07-26T06:25:07;21.30;99.90
3816;DHT22;1923;48.154;11.536;2022-07-26T06:27:36;21.20;99.90
3816;DHT22;1923;48.154;11.536;2022-07-26T06:30:06;21.40;99.90
3816;DHT22;1923;48.154;11.536;2022-07-26T06:32:35;21.40;99.90
3816;DHT22;1923;48.154;11.536;2022-07-26T06:35:04;21.50;99.90
3816;DHT22;1923;48.154;11.536;2022-07-26T06:37:35;21.60;99.90
3816;DHT22;1923;48.154;11.536;2022-07-26T06:40:04;21.60;99.90
3816;DHT22;1923;48.154;11.536;2022-07-26T06:42:32;21.60;99.90
3816;DHT22;1923;48.154;11.536;2022-07-26T06:45:03;21.70;99.90
3816;DHT22;1923;48.154;11.536;2022-07-26T06:47:31;21.70;99.90
3816;DHT22;1923;48.154;11.536;2022-07-26T06:50:01;21.70;99.90
3816;DHT22;1923;48.154;11.536;2022-07-26T06:52:29;21.70;99.90
3816;DHT22;1923;48.154;11.536;2022-07-26T06:54:58;21.80;99.90
3816;DHT22;1923;48.154;11.536;2022-07-26T06:57:27;21.90;99.90
3816;DHT22;1923;48.154;11.536;2022-07-26T06:59:55;21.90;99.90
3816;DHT22;1923;48.154;11.536;2022-07-26T07:02:24;21.80;99.90
3816;DHT22;1923;48.154;11.536;2022-07-26T07:04:53;21.80;99.90
3816;DHT22;1923;48.154;11.536;2022-07-26T07:07:21;21.90;99.90
3816;DHT22;1923;48.154;11.536;2022-07-26T07:09:52;21.90;99.90
3816;DHT22;1923;48.154;11.536;2022-07-26T07:12:21;21.90;99.90
3816;DHT22;1923;48.154;11.536;2022-07-26T07:14:49;22.00;99.90
3816;DHT22;1923;48.154;11.536;2022-07-26T07:17:18;22.00;99.90
3816;DHT22;1923;48.154;11.536;2022-07-26T07:19:48;22.10;99.90
3816;DHT22;1923;48.154;11.536;2022-07-26T07:22:16;21.90;99.90
3816;DHT22;1923;48.154;11.536;2022-07-26T07:24:44;21.80;99.90
3816;DHT22;1923;48.154;11.536;2022-07-26T07:27:14;21.70;99.90
3816;DHT22;1923;48.154;11.536;2022-07-26T07:29:42;21.60;99.90
3816;DHT22;1923;48.154;11.536;2022-07-26T07:32:10;21.50;99.90
3816;DHT22;1923;48.154;11.536;2022-07-26T07:34:45;21.50;99.90
3816;DHT22;1923;48.154;11.536;2022-07-26T07:37:15;21.30;99.90
3816;DHT22;1923;48.154;11.536;2022-07-26T07:39:45;21.30;99.90
3816;DHT22;1923;48.154;11.536;2022-07-26T07:42:16;21.10;99.90
3816;DHT22;1923;48.154;11.536;2022-07-26T07:44:44;20.90;99.90
3816;DHT22;1923;48.154;11.536;2022-07-26T07:47:12;20.90;99.90
3816;DHT22;1923;48.154;11.536;2022-07-26T07:49:41;20.80;99.90
3816;DHT22;1923;48.154;11.536;2022-07-26T07:52:09;20.70;99.90
3816;DHT22;1923;48.154;11.536;2022-07-26T07:54:39;20.70;99.90
3816;DHT22;1923;48.154;11.536;2022-07-26T07:57:08;20.60;99.90
3816;DHT22;1923;48.154;11.536;2022-07-26T07:59:36;20.50;99.90
3816;DHT22;1923;48.154;11.536;2022-07-26T08:02:05;20.50;99.90
3816;DHT22;1923;48.154;11.536;2022-07-26T08:04:33;20.50;99.90
3816;DHT22;1923;48.154;11.536;2022-07-26T08:07:01;20.50;99.90
3816;DHT22;1923;48.154;11.536;2022-07-26T08:09:29;20.50;99.90
3816;DHT22;1923;48.154;11.536;2022-07-26T08:12:01;20.60;99.90
3816;DHT22;1923;48.154;11.536;2022-07-26T08:14:31;20.70;99.90
3816;DHT22;1923;48.154;11.536;2022-07-26T08:16:59;20.80;99.90
3816;DHT22;1923;48.154;11.536;2022-07-26T08:19:27;20.80;99.90
3816;DHT22;1923;48.154;11.536;2022-07-26T08:22:08;20.80;99.90
3816;DHT22;1923;48.154;11.536;2022-07-26T08:24:36;20.90;99.90
3816;DHT22;1923;48.154;11.536;2022-07-26T08:27:06;20.80;99.90
3816;DHT22;1923;48.154;11.536;2022-07-26T08:29:34;20.80;99.90
3816;DHT22;1923;48.154;11.536;2022-07-26T08:32:02;20.70;99.90
3816;DHT22;1923;48.154;11.536;2022-07-26T08:34:30;20.70;99.90
3816;DHT22;1923;48.154;11.536;2022-07-26T08:36:59;20.70;99.90
3816;DHT22;1923;48.154;11.536;2022-07-26T08:39:43;20.80;99.90
3816;DHT22;1923;48.154;11.536;2022-07-26T08:42:13;20.80;99.90
3816;DHT22;1923;48.154;11.536;2022-07-26T08:44:42;20.70;99.90
3816;DHT22;1923;48.154;11.536;2022-07-26T08:47:12;20.80;99.90
3816;DHT22;1923;48.154;11.536;2022-07-26T08:49:41;20.80;99.90
3816;DHT22;1923;48.154;11.536;2022-07-26T08:52:11;20.80;99.90
3816;DHT22;1923;48.154;11.536;2022-07-26T08:54:42;20.80;99.90
3816;DHT22;1923;48.154;11.536;2022-07-26T08:57:10;20.90;99.90
3816;DHT22;1923;48.154;11.536;2022-07-26T08:59:40;21.00;99.90
3816;DHT22;1923;48.154;11.536;2022-07-26T09:02:11;21.00;99.90
3816;DHT22;1923;48.154;11.536;2022-07-26T09:04:41;21.00;99.90
3816;DHT22;1923;48.154;11.536;2022-07-26T09:07:14;20.90;99.90
3816;DHT22;1923;48.154;11.536;2022-07-26T09:09:57;21.00;99.90
3816;DHT22;1923;48.154;11.536;2022-07-26T09:12:27;21.20;99.90
3816;DHT22;1923;48.154;11.536;2022-07-26T09:14:57;21.10;99.90
3816;DHT22;1923;48.154;11.536;2022-07-26T09:17:37;21.30;99.90
3816;DHT22;1923;48.154;11.536;2022-07-26T09:20:08;21.40;99.90
3816;DHT22;1923;48.154;11.536;2022-07-26T09:22:37;21.40;99.90
3816;DHT22;1923;48.154;11.536;2022-07-26T09:25:20;21.50;99.90
3816;DHT22;1923;48.154;11.536;2022-07-26T09:27:48;21.60;99.90
3816;DHT22;1923;48.154;11.536;2022-07-26T09:30:18;21.60;99.90
3816;DHT22;1923;48.154;11.536;2022-07-26T09:32:59;21.70;99.90
3816;DHT22;1923;48.154;11.536;2022-07-26T09:35:29;21.80;99.90
3816;DHT22;1923;48.154;11.536;2022-07-26T09:38:17;21.90;99.90
3816;DHT22;1923;48.154;11.536;2022-07-26T09:40:45;22.00;99.90
3816;DHT22;1923;48.154;11.536;2022-07-26T09:43:17;22.00;99.90
3816;DHT22;1923;48.154;11.536;2022-07-26T09:46:03;22.20;99.90
3816;DHT22;1923;48.154;11.536;2022-07-26T09:48:33;22.20;99.90
3816;DHT22;1923;48.154;11.536;2022-07-26T09:51:34;22.30;99.90
3816;DHT22;1923;48.154;11.536;2022-07-26T09:54:03;22.50;99.90
3816;DHT22;1923;48.154;11.536;2022-07-26T09:56:45;22.50;99.90
3816;DHT22;1923;48.154;11.536;2022-07-26T09:59:15;22.80;99.90
3816;DHT22;1923;48.154;11.536;2022-07-26T10:01:45;22.90;99.90
3816;DHT22;1923;48.154;11.536;2022-07-26T10:04:14;23.20;99.90
3816;DHT22;1923;48.154;11.536;2022-07-26T10:06:43;23.40;99.90
3816;DHT22;1923;48.154;11.536;2022-07-26T10:09:12;23.90;99.90
3816;DHT22;1923;48.154;11.536;2022-07-26T10:11:42;24.60;99.90
3816;DHT22;1923;48.154;11.536;2022-07-26T10:14:40;25.20;99.90
3816;DHT22;1923;48.154;11.536;2022-07-26T10:20:44;27.50;99.90
3816;DHT22;1923;48.154;11.536;2022-07-26T10:23:34;27.90;99.90
3816;DHT22;1923;48.154;11.536;2022-07-26T10:26:04;28.30;99.90
3816;DHT22;1923;48.154;11.536;2022-07-26T10:28:36;28.50;99.90
3816;DHT22;1923;48.154;11.536;2022-07-26T10:31:29;29.10;99.90
3816;DHT22;1923;48.154;11.536;2022-07-26T10:33:58;29.00;99.90
3816;DHT22;1923;48.154;11.536;2022-07-26T10:36:31;29.00;99.90
3816;DHT22;1923;48.154;11.536;2022-07-26T10:41:41;28.50;99.90
3816;DHT22;1923;48.154;11.536;2022-07-26T10:44:21;28.40;99.90
3816;DHT22;1923;48.154;11.536;2022-07-26T10:47:17;27.90;99.90
3816;DHT22;1923;48.154;11.536;2022-07-26T10:49:54;27.40;99.90
3816;DHT22;1923;48.154;11.536;2022-07-26T10:52:26;27.20;99.90
3816;DHT22;1923;48.154;11.536;2022-07-26T10:55:05;27.70;99.90
3816;DHT22;1923;48.154;11.536;2022-07-26T10:57:35;28.40;99.90
3816;DHT22;1923;48.154;11.536;2022-07-26T11:00:10;28.80;99.90
3816;DHT22;1923;48.154;11.536;2022-07-26T11:02:40;29.40;99.90
3816;DHT22;1923;48.154;11.536;2022-07-26T11:05:11;30.30;99.90
3816;DHT22;1923;48.154;11.536;2022-07-26T11:07:52;31.60;99.90
3816;DHT22;1923;48.154;11.536;2022-07-26T11:10:22;33.00;97.60
3816;DHT22;1923;48.154;11.536;2022-07-26T11:13:02;34.10;95.60
3816;DHT22;1923;48.154;11.536;2022-07-26T11:15:31;33.90;93.70
3816;DHT22;1923;48.154;11.536;2022-07-26T11:18:12;33.30;93.60
3816;DHT22;1923;48.154;11.536;2022-07-26T11:20:41;32.60;93.90
3816;DHT22;1923;48.154;11.536;2022-07-26T11:23:28;31.60;93.20
3816;DHT22;1923;48.154;11.536;2022-07-26T11:26:08;31.20;94.30
3816;DHT22;1923;48.154;11.536;2022-07-26T11:28:51;30.70;94.60
3816;DHT22;1923;48.154;11.536;2022-07-26T11:31:24;30.10;95.70
3816;DHT22;1923;48.154;11.536;2022-07-26T11:34:16;29.60;96.30
3816;DHT22;1923;48.154;11.536;2022-07-26T11:36:46;29.20;96.70
3816;DHT22;1923;48.154;11.536;2022-07-26T11:39:21;28.90;96.80
3816;DHT22;1923;48.154;11.536;2022-07-26T11:41:51;28.80;98.00
3816;DHT22;1923;48.154;11.536;2022-07-26T11:44:23;28.80;98.90
3816;DHT22;1923;48.154;11.536;2022-07-26T11:46:51;28.70;99.00
3816;DHT22;1923;48.154;11.536;2022-07-26T11:49:21;28.40;98.30
3816;DHT22;1923;48.154;11.536;2022-07-26T11:52:09;28.20;98.50
3816;DHT22;1923;48.154;11.536;2022-07-26T11:54:45;27.80;99.90
3816;DHT22;1923;48.154;11.536;2022-07-26T11:57:14;27.50;99.90
3816;DHT22;1923;48.154;11.536;2022-07-26T11:59:44;27.20;99.90
3816;DHT22;1923;48.154;11.536;2022-07-26T12:02:13;26.90;99.90
3816;DHT22;1923;48.154;11.536;2022-07-26T12:04:43;26.60;99.90
3816;DHT22;1923;48.154;11.536;2022-07-26T12:07:13;26.30;99.90
3816;DHT22;1923;48.154;11.536;2022-07-26T12:09:48;26.20;99.90
3816;DHT22;1923;48.154;11.536;2022-07-26T12:12:19;26.20;99.90
3816;DHT22;1923;48.154;11.536;2022-07-26T12:14:56;26.10;99.90
3816;DHT22;1923;48.154;11.536;2022-07-26T12:17:24;26.00;99.90
3816;DHT22;1923;48.154;11.536;2022-07-26T12:20:09;26.00;99.90
3816;DHT22;1923;48.154;11.536;2022-07-26T12:22:38;25.90;99.90
3816;DHT22;1923;48.154;11.536;2022-07-26T12:25:08;25.70;99.90
3816;DHT22;1923;48.154;11.536;2022-07-26T12:27:44;25.70;99.90
3816;DHT22;1923;48.154;11.536;2022-07-26T12:30:14;25.80;99.90
3816;DHT22;1923;48.154;11.536;2022-07-26T12:32:44;25.70;99.90
3816;DHT22;1923;48.154;11.536;2022-07-26T12:35:15;25.90;99.90
3816;DHT22;1923;48.154;11.536;2022-07-26T12:37:51;25.90;99.90
3816;DHT22;1923;48.154;11.536;2022-07-26T12:40:22;25.90;99.90
3816;DHT22;1923;48.154;11.536;2022-07-26T12:42:55;26.10;99.90
3816;DHT22;1923;48.154;11.536;2022-07-26T12:45:29;26.30;99.90
3816;DHT22;1923;48.154;11.536;2022-07-26T12:47:59;26.20;99.90
3816;DHT22;1923;48.154;11.536;2022-07-26T12:50:29;26.30;99.90
3816;DHT22;1923;48.154;11.536;2022-07-26T12:53:00;26.50;99.90
3816;DHT22;1923;48.154;11.536;2022-07-26T12:55:30;26.50;99.90
3816;DHT22;1923;48.154;11.536;2022-07-26T12:58:00;26.70;99.90
3816;DHT22;1923;48.154;11.536;2022-07-26T13:00:28;26.80;99.90
3816;DHT22;1923;48.154;11.536;2022-07-26T13:02:56;26.80;99.90
3816;DHT22;1923;48.154;11.536;2022-07-26T13:05:24;26.60;99.90
3816;DHT22;1923;48.154;11.536;2022-07-26T13:07:53;26.60;99.90
3816;DHT22;1923;48.154;11.536;2022-07-26T13:10:21;26.50;99.90
3816;DHT22;1923;48.154;11.536;2022-07-26T13:13:06;26.50;99.90
3816;DHT22;1923;48.154;11.536;2022-07-26T13:15:34;26.50;99.90
3816;DHT22;1923;48.154;11.536;2022-07-26T13:18:05;26.40;99.90
3816;DHT22;1923;48.154;11.536;2022-07-26T13:20:36;26.50;99.90
3816;DHT22;1923;48.154;11.536;2022-07-26T13:23:05;26.60;99.90
3816;DHT22;1923;48.154;11.536;2022-07-26T13:25:37;26.60;99.90
3816;DHT22;1923;48.154;11.536;2022-07-26T13:28:08;26.50;99.90
3816;DHT22;1923;48.154;11.536;2022-07-26T13:30:36;26.50;99.90
3816;DHT22;1923;48.154;11.536;2022-07-26T13:33:09;26.50;99.90
3816;DHT22;1923;48.154;11.536;2022-07-26T13:35:37;26.40;99.90
3816;DHT22;1923;48.154;11.536;2022-07-26T13:38:08;26.50;99.90
3816;DHT22;1923;48.154;11.536;2022-07-26T13:40:36;26.50;99.90
3816;DHT22;1923;48.154;11.536;2022-07-26T13:43:04;26.60;99.90
3816;DHT22;1923;48.154;11.536;2022-07-26T13:45:33;26.60;99.90
3816;DHT22;1923;48.154;11.536;2022-07-26T13:48:02;26.60;99.90
3816;DHT22;1923;48.154;11.536;2022-07-26T13:50:30;26.50;99.90
3816;DHT22;1923;48.154;11.536;2022-07-26T13:52:58;26.50;99.90
3816;DHT22;1923;48.154;11.536;2022-07-26T13:55:27;26.30;99.90
3816;DHT22;1923;48.154;11.536;2022-07-26T13:57:55;26.40;99.90
3816;DHT22;1923;48.154;11.536;2022-07-26T14:00:24;26.30;99.90
3816;DHT22;1923;48.154;11.536;2022-07-26T14:02:56;26.30;99.90
3816;DHT22;1923;48.154;11.536;2022-07-26T14:05:25;26.30;99.90
3816;DHT22;1923;48.154;11.536;2022-07-26T14:07:54;26.30;99.90
3816;DHT22;1923;48.154;11.536;2022-07-26T14:10:23;26.30;99.90
3816;DHT22;1923;48.154;11.536;2022-07-26T14:12:51;26.30;99.90
3816;DHT22;1923;48.154;11.536;2022-07-26T14:15:20;26.20;99.90
3816;DHT22;1923;48.154;11.536;2022-07-26T14:17:49;26.10;99.90
3816;DHT22;1923;48.154;11.536;2022-07-26T14:20:20;26.10;99.90
3816;DHT22;1923;48.154;11.536;2022-07-26T14:22:48;26.20;99.90
3816;DHT22;1923;48.154;11.536;2022-07-26T14:25:19;26.10;99.90
3816;DHT22;1923;48.154;11.536;2022-07-26T14:27:48;25.90;99.90
3816;DHT22;1923;48.154;11.536;2022-07-26T14:30:16;25.80;99.90
3816;DHT22;1923;48.154;11.536;2022-07-26T14:32:45;25.70;99.90
3816;DHT22;1923;48.154;11.536;2022-07-26T14:35:13;25.70;99.90
3816;DHT22;1923;48.154;11.536;2022-07-26T14:37:44;25.50;99.90
3816;DHT22;1923;48.154;11.536;2022-07-26T14:40:14;25.50;99.90
3816;DHT22;1923;48.154;11.536;2022-07-26T14:42:43;25.40;99.90
3816;DHT22;1923;48.154;11.536;2022-07-26T14:45:12;25.40;99.90
3816;DHT22;1923;48.154;11.536;2022-07-26T14:47:40;25.50;99.90
3816;DHT22;1923;48.154;11.536;2022-07-26T14:50:10;25.50;99.90
3816;DHT22;1923;48.154;11.536;2022-07-26T14:52:39;25.50;99.90
3816;DHT22;1923;48.154;11.536;2022-07-26T14:55:09;25.50;99.90
3816;DHT22;1923;48.154;11.536;2022-07-26T14:57:38;25.60;99.90
3816;DHT22;1923;48.154;11.536;2022-07-26T15:00:08;25.70;99.90
3816;DHT22;1923;48.154;11.536;2022-07-26T15:02:37;25.70;99.90
3816;DHT22;1923;48.154;11.536;2022-07-26T15:05:06;25.70;99.90
3816;DHT22;1923;48.154;11.536;2022-07-26T15:07:35;25.60;99.90
3816;DHT22;1923;48.154;11.536;2022-07-26T15:10:04;25.50;99.90
3816;DHT22;1923;48.154;11.536;2022-07-26T15:12:34;25.40;99.90
3816;DHT22;1923;48.154;11.536;2022-07-26T15:15:02;25.40;99.90
3816;DHT22;1923;48.154;11.536;2022-07-26T15:17:31;25.40;99.90
3816;DHT22;1923;48.154;11.536;2022-07-26T15:19:59;25.40;99.90
3816;DHT22;1923;48.154;11.536;2022-07-26T15:22:27;25.40;99.90
3816;DHT22;1923;48.154;11.536;2022-07-26T15:24:55;25.50;99.90
3816;DHT22;1923;48.154;11.536;2022-07-26T15:27:23;25.50;99.90
3816;DHT22;1923;48.154;11.536;2022-07-26T15:29:53;25.70;99.90
3816;DHT22;1923;48.154;11.536;2022-07-26T15:32:29;25.70;99.90
3816;DHT22;1923;48.154;11.536;2022-07-26T15:34:57;25.70;99.90
3816;DHT22;1923;48.154;11.536;2022-07-26T15:37:25;25.80;99.90
3816;DHT22;1923;48.154;11.536;2022-07-26T15:39:53;25.80;99.90
3816;DHT22;1923;48.154;11.536;2022-07-26T15:42:21;25.90;99.90
3816;DHT22;1923;48.154;11.536;2022-07-26T15:44:50;26.00;99.90
3816;DHT22;1923;48.154;11.536;2022-07-26T15:47:20;26.00;99.90
3816;DHT22;1923;48.154;11.536;2022-07-26T15:50:10;26.00;99.90
3816;DHT22;1923;48.154;11.536;2022-07-26T15:52:42;25.90;99.90
3816;DHT22;1923;48.154;11.536;2022-07-26T15:55:11;25.80;99.90
3816;DHT22;1923;48.154;11.536;2022-07-26T15:57:39;26.00;99.90
3816;DHT22;1923;48.154;11.536;2022-07-26T16:00:10;25.90;99.90
3816;DHT22;1923;48.154;11.536;2022-07-26T16:02:40;25.90;99.90
3816;DHT22;1923;48.154;11.536;2022-07-26T16:05:09;25.90;99.90
3816;DHT22;1923;48.154;11.536;2022-07-26T16:07:38;25.90;99.90
3816;DHT22;1923;48.154;11.536;2022-07-26T16:10:08;25.90;99.90
3816;DHT22;1923;48.154;11.536;2022-07-26T16:12:38;25.90;99.90